Schubert, Pennsylvania
Current Conditions -  °F | °C
As of 10:21 AM on Wednesday 22 Oct 2014 (Local Time) from KMUI Reporting Station
Drizzle Drizzle  
Wind Chill: 54°   Ceiling: 2800
Heat Index: 54°   Visibility: 10mi
Dew Point: 54°   Wind: 9mph
Humidity: 100%   Direction: 360°N
Pressure: 29.97"   Gusts: 20mph
Location:  40.4893°N, 76.2947°W
Report Text: KMUI 221421Z AUTO 36008G17KT 10SM -DZ FEW020 BKN028 OVC036 12/12 A2997 RMK AO2 RAB1356E1357DZE1356B1420 $
Loading
Personal Weather Stations






























Interactive Weather Map
Tropical Storm Tracking
New forecast layout! Learn more

10-Day Weather Forecast

Advertisements
Track Severe Weather on mobile